PWSweather.com
Personal Weather Stations
Station Observations
KKSTOPEK1
South Central , Topeka, KS 66611

South Central Topeka, KS 66611

Lat: 39.03, Lon: -95.71

Elevation: 945

Station Type: Davis Vantage Vue

http://www.wxstation.us/weather/index.php

High Low Average
Temperature 45.8°F7.7°C 16.1°F-8.8°C 31.2°F-0.4°C
Dew Point 27.1°F-2.7°C 11.6°F-11.3°C 20.0°F-6.7°C
Winds 4.0 mph 6.4 kmh Calm Calm 1.0 mph NE1.6 kmh NE
Wind Gusts 10.0 mph16.1 kmh -- 3.0 mph4.8 kmh
Humidity 84% 38% 66%
Pressure 30.24 in1024.0 mb 30.06 in1017.9 mb -
Precipitation 0.00 in0.0 mm - -
Hour Temp Dew Point Humidity Winds Wind Gusts Pressure Precip Precip Rate Daily Precip Total
12:00 AM 25.8°F-3.4°C 19.6°F-6.9°C 77% Calm Calm -- 30.04 in1017.3 mb 0.00 in0.0 mm 0.00 in0.0 mm 0.00 in0.0 mm
12:05 AM 25.4°F-3.7°C 19.5°F-6.9°C 78% Calm Calm -- 30.04 in1017.3 mb 0.00 in0.0 mm 0.00 in0.0 mm 0.00 in0.0 mm
12:10 AM 25.3°F-3.7°C 19.7°F-6.8°C 79% Calm Calm -- 30.05 in1017.6 mb 0.00 in0.0 mm 0.00 in0.0 mm 0.00 in0.0 mm
12:15 AM 25.0°F-3.9°C 19.4°F-7.0°C 79% Calm Calm -- 30.05 in1017.6 mb 0.00 in0.0 mm 0.00 in0.0 mm 0.00 in0.0 mm
12:20 AM 24.9°F-3.9°C 19.6°F-6.9°C 80% Calm Calm -- 30.05 in1017.6 mb 0.00 in0.0 mm 0.00 in0.0 mm 0.00 in0.0 mm
12:25 AM 24.6°F-4.1°C 19.3°F-7.1°C 80% Calm Calm -- 30.05 in1017.6 mb 0.00 in0.0 mm 0.00 in0.0 mm 0.00 in0.0 mm
12:30 AM 24.5°F-4.2°C 19.5°F-6.9°C 81% Calm Calm -- 30.05 in1017.6 mb 0.00 in0.0 mm 0.00 in0.0 mm 0.00 in0.0 mm
12:35 AM 24.3°F-4.3°C 19.3°F-7.1°C 81% Calm Calm -- 30.05 in1017.6 mb 0.00 in0.0 mm 0.00 in0.0 mm 0.00 in0.0 mm
12:40 AM 24.2°F-4.3°C 19.2°F-7.1°C 81% Calm Calm -- 30.05 in1017.6 mb 0.00 in0.0 mm 0.00 in0.0 mm 0.00 in0.0 mm
12:45 AM 23.8°F-4.6°C 18.8°F-7.3°C 81% Calm Calm -- 30.06 in1017.9 mb 0.00 in0.0 mm 0.00 in0.0 mm 0.00 in0.0 mm
12:50 AM 23.6°F-4.7°C 18.6°F-7.4°C 81% Calm Calm -- 30.06 in1017.9 mb 0.00 in0.0 mm 0.00 in0.0 mm 0.00 in0.0 mm
12:55 AM 23.5°F-4.7°C 18.8°F-7.3°C 82% Calm Calm -- 30.06 in1017.9 mb 0.00 in0.0 mm 0.00 in0.0 mm 0.00 in0.0 mm
01:00 AM 23.3°F-4.8°C 18.6°F-7.4°C 82% Calm Calm -- 30.06 in1017.9 mb 0.00 in0.0 mm 0.00 in0.0 mm 0.00 in0.0 mm
01:05 AM 23.0°F-5.0°C 18.3°F-7.6°C 82% Calm Calm -- 30.06 in1017.9 mb 0.00 in0.0 mm 0.00 in0.0 mm 0.00 in0.0 mm
01:10 AM 22.9°F-5.1°C 18.2°F-7.7°C 82% Calm Calm -- 30.06 in1017.9 mb 0.00 in0.0 mm 0.00 in0.0 mm 0.00 in0.0 mm
01:15 AM 22.9°F-5.1°C 18.2°F-7.7°C 82% Calm Calm -- 30.07 in1018.3 mb 0.00 in0.0 mm 0.00 in0.0 mm 0.00 in0.0 mm
01:20 AM 22.7°F-5.2°C 18.0°F-7.8°C 82% Calm Calm -- 30.07 in1018.3 mb 0.00 in0.0 mm 0.00 in0.0 mm 0.00 in0.0 mm
01:25 AM 22.5°F-5.3°C 17.8°F-7.9°C 82% Calm Calm -- 30.07 in1018.3 mb 0.00 in0.0 mm 0.00 in0.0 mm 0.00 in0.0 mm
01:30 AM 22.5°F-5.3°C 18.1°F-7.7°C 83% Calm Calm -- 30.07 in1018.3 mb 0.00 in0.0 mm 0.00 in0.0 mm 0.00 in0.0 mm
01:35 AM 22.7°F-5.2°C 18.3°F-7.6°C 83% Calm Calm -- 30.07 in1018.3 mb 0.00 in0.0 mm 0.00 in0.0 mm 0.00 in0.0 mm
01:40 AM 22.6°F-5.2°C 18.2°F-7.7°C 83% Calm Calm -- 30.07 in1018.3 mb 0.00 in0.0 mm 0.00 in0.0 mm 0.00 in0.0 mm
01:45 AM 22.5°F-5.3°C 18.1°F-7.7°C 83% Calm Calm -- 30.07 in1018.3 mb 0.00 in0.0 mm 0.00 in0.0 mm 0.00 in0.0 mm
01:50 AM 22.2°F-5.4°C 17.8°F-7.9°C 83% Calm Calm -- 30.08 in1018.6 mb 0.00 in0.0 mm 0.00 in0.0 mm 0.00 in0.0 mm
01:55 AM 22.2°F-5.4°C 17.8°F-7.9°C 83% Calm Calm -- 30.08 in1018.6 mb 0.00 in0.0 mm 0.00 in0.0 mm 0.00 in0.0 mm
02:00 AM 22.0°F-5.6°C 17.6°F-8.0°C 83% Calm Calm -- 30.08 in1018.6 mb 0.00 in0.0 mm 0.00 in0.0 mm 0.00 in0.0 mm
02:05 AM 22.0°F-5.6°C 17.6°F-8.0°C 83% Calm Calm -- 30.08 in1018.6 mb 0.00 in0.0 mm 0.00 in0.0 mm 0.00 in0.0 mm
02:10 AM 21.7°F-5.7°C 17.3°F-8.2°C 83% Calm Calm -- 30.08 in1018.6 mb 0.00 in0.0 mm 0.00 in0.0 mm 0.00 in0.0 mm
02:15 AM 21.4°F-5.9°C 17.0°F-8.3°C 83% Calm Calm -- 30.08 in1018.6 mb 0.00 in0.0 mm 0.00 in0.0 mm 0.00 in0.0 mm
02:20 AM 21.2°F-6.0°C 16.8°F-8.4°C 83% Calm Calm -- 30.09 in1019.0 mb 0.00 in0.0 mm 0.00 in0.0 mm 0.00 in0.0 mm
02:25 AM 20.8°F-6.2°C 16.5°F-8.6°C 83% Calm Calm -- 30.09 in1019.0 mb 0.00 in0.0 mm 0.00 in0.0 mm 0.00 in0.0 mm
02:30 AM 20.3°F-6.5°C 16.0°F-8.9°C 83% Calm Calm -- 30.09 in1019.0 mb 0.00 in0.0 mm 0.00 in0.0 mm 0.00 in0.0 mm
02:35 AM 20.0°F-6.7°C 15.7°F-9.1°C 83% Calm Calm -- 30.09 in1019.0 mb 0.00 in0.0 mm 0.00 in0.0 mm 0.00 in0.0 mm
02:40 AM 19.7°F-6.8°C 15.4°F-9.2°C 83% Calm Calm -- 30.09 in1019.0 mb 0.00 in0.0 mm 0.00 in0.0 mm 0.00 in0.0 mm
02:45 AM 19.6°F-6.9°C 15.3°F-9.3°C 83% Calm Calm -- 30.09 in1019.0 mb 0.00 in0.0 mm 0.00 in0.0 mm 0.00 in0.0 mm
02:50 AM 19.5°F-6.9°C 15.2°F-9.3°C 83% Calm Calm -- 30.09 in1019.0 mb 0.00 in0.0 mm 0.00 in0.0 mm 0.00 in0.0 mm
02:55 AM 19.4°F-7.0°C 15.1°F-9.4°C 83% Calm Calm -- 30.10 in1019.3 mb 0.00 in0.0 mm 0.00 in0.0 mm 0.00 in0.0 mm
03:00 AM 19.3°F-7.1°C 15.0°F-9.4°C 83% Calm Calm -- 30.10 in1019.3 mb 0.00 in0.0 mm 0.00 in0.0 mm 0.00 in0.0 mm
03:05 AM 19.2°F-7.1°C 14.9°F-9.5°C 83% Calm Calm -- 30.10 in1019.3 mb 0.00 in0.0 mm 0.00 in0.0 mm 0.00 in0.0 mm
03:10 AM 19.1°F-7.2°C 14.8°F-9.6°C 83% Calm Calm -- 30.10 in1019.3 mb 0.00 in0.0 mm 0.00 in0.0 mm 0.00 in0.0 mm
03:15 AM 18.9°F-7.3°C 14.6°F-9.7°C 83% Calm Calm -- 30.10 in1019.3 mb 0.00 in0.0 mm 0.00 in0.0 mm 0.00 in0.0 mm
03:20 AM 18.8°F-7.3°C 14.5°F-9.7°C 83% Calm Calm -- 30.10 in1019.3 mb 0.00 in0.0 mm 0.00 in0.0 mm 0.00 in0.0 mm
03:25 AM 18.3°F-7.6°C 14.0°F-10.0°C 83% Calm Calm -- 30.10 in1019.3 mb 0.00 in0.0 mm 0.00 in0.0 mm 0.00 in0.0 mm
03:30 AM 18.3°F-7.6°C 14.0°F-10.0°C 83% Calm Calm -- 30.11 in1019.6 mb 0.00 in0.0 mm 0.00 in0.0 mm 0.00 in0.0 mm
03:35 AM 18.4°F-7.6°C 14.4°F-9.8°C 84% Calm Calm -- 30.11 in1019.6 mb 0.00 in0.0 mm 0.00 in0.0 mm 0.00 in0.0 mm
03:40 AM 18.0°F-7.8°C 13.7°F-10.2°C 83% Calm Calm -- 30.11 in1019.6 mb 0.00 in0.0 mm 0.00 in0.0 mm 0.00 in0.0 mm
03:45 AM 17.7°F-7.9°C 13.4°F-10.3°C 83% Calm Calm -- 30.11 in1019.6 mb 0.00 in0.0 mm 0.00 in0.0 mm 0.00 in0.0 mm
03:50 AM 17.6°F-8.0°C 13.3°F-10.4°C 83% Calm Calm -- 30.12 in1020.0 mb 0.00 in0.0 mm 0.00 in0.0 mm 0.00 in0.0 mm
03:55 AM 17.6°F-8.0°C 13.3°F-10.4°C 83% Calm Calm -- 30.11 in1019.6 mb 0.00 in0.0 mm 0.00 in0.0 mm 0.00 in0.0 mm
04:00 AM 17.6°F-8.0°C 13.3°F-10.4°C 83% Calm Calm -- 30.11 in1019.6 mb 0.00 in0.0 mm 0.00 in0.0 mm 0.00 in0.0 mm
04:05 AM 17.8°F-7.9°C 13.5°F-10.3°C 83% Calm Calm -- 30.11 in1019.6 mb 0.00 in0.0 mm 0.00 in0.0 mm 0.00 in0.0 mm
04:10 AM 17.9°F-7.8°C 13.6°F-10.2°C 83% Calm Calm -- 30.10 in1019.3 mb 0.00 in0.0 mm 0.00 in0.0 mm 0.00 in0.0 mm
04:15 AM 17.9°F-7.8°C 13.6°F-10.2°C 83% Calm Calm -- 30.10 in1019.3 mb 0.00 in0.0 mm 0.00 in0.0 mm 0.00 in0.0 mm
04:20 AM 18.2°F-7.7°C 14.2°F-9.9°C 84% Calm Calm -- 30.10 in1019.3 mb 0.00 in0.0 mm 0.00 in0.0 mm 0.00 in0.0 mm
04:25 AM 18.3°F-7.6°C 14.0°F-10.0°C 83% Calm Calm -- 30.10 in1019.3 mb 0.00 in0.0 mm 0.00 in0.0 mm 0.00 in0.0 mm
04:30 AM 17.9°F-7.8°C 13.6°F-10.2°C 83% Calm Calm -- 30.10 in1019.3 mb 0.00 in0.0 mm 0.00 in0.0 mm 0.00 in0.0 mm
04:35 AM 17.7°F-7.9°C 13.4°F-10.3°C 83% Calm Calm -- 30.10 in1019.3 mb 0.00 in0.0 mm 0.00 in0.0 mm 0.00 in0.0 mm
04:40 AM 17.7°F-7.9°C 13.4°F-10.3°C 83% Calm Calm -- 30.10 in1019.3 mb 0.00 in0.0 mm 0.00 in0.0 mm 0.00 in0.0 mm
04:45 AM 17.6°F-8.0°C 13.3°F-10.4°C 83% Calm Calm -- 30.11 in1019.6 mb 0.00 in0.0 mm 0.00 in0.0 mm 0.00 in0.0 mm
04:50 AM 17.3°F-8.2°C 13.0°F-10.6°C 83% Calm Calm -- 30.11 in1019.6 mb 0.00 in0.0 mm 0.00 in0.0 mm 0.00 in0.0 mm
04:55 AM 17.0°F-8.3°C 12.7°F-10.7°C 83% Calm Calm -- 30.11 in1019.6 mb 0.00 in0.0 mm 0.00 in0.0 mm 0.00 in0.0 mm
05:00 AM 16.6°F-8.6°C 12.3°F-10.9°C 83% Calm Calm -- 30.11 in1019.6 mb 0.00 in0.0 mm 0.00 in0.0 mm 0.00 in0.0 mm
05:05 AM 16.3°F-8.7°C 12.0°F-11.1°C 83% Calm Calm -- 30.11 in1019.6 mb 0.00 in0.0 mm 0.00 in0.0 mm 0.00 in0.0 mm
05:10 AM 16.6°F-8.6°C 12.3°F-10.9°C 83% Calm Calm -- 30.11 in1019.6 mb 0.00 in0.0 mm 0.00 in0.0 mm 0.00 in0.0 mm
05:15 AM 16.8°F-8.4°C 12.5°F-10.8°C 83% Calm Calm -- 30.11 in1019.6 mb 0.00 in0.0 mm 0.00 in0.0 mm 0.00 in0.0 mm
05:20 AM 16.8°F-8.4°C 12.5°F-10.8°C 83% Calm Calm -- 30.11 in1019.6 mb 0.00 in0.0 mm 0.00 in0.0 mm 0.00 in0.0 mm
05:25 AM 17.0°F-8.3°C 12.7°F-10.7°C 83% Calm Calm -- 30.11 in1019.6 mb 0.00 in0.0 mm 0.00 in0.0 mm 0.00 in0.0 mm
05:30 AM 17.2°F-8.2°C 12.9°F-10.6°C 83% Calm Calm -- 30.12 in1020.0 mb 0.00 in0.0 mm 0.00 in0.0 mm 0.00 in0.0 mm
05:35 AM 17.2°F-8.2°C 12.9°F-10.6°C 83% Calm Calm -- 30.12 in1020.0 mb 0.00 in0.0 mm 0.00 in0.0 mm 0.00 in0.0 mm
05:40 AM 17.0°F-8.3°C 12.7°F-10.7°C 83% Calm Calm -- 30.12 in1020.0 mb 0.00 in0.0 mm 0.00 in0.0 mm 0.00 in0.0 mm
05:45 AM 16.7°F-8.5°C 12.4°F-10.9°C 83% Calm Calm -- 30.12 in1020.0 mb 0.00 in0.0 mm 0.00 in0.0 mm 0.00 in0.0 mm
05:50 AM 16.5°F-8.6°C 12.2°F-11.0°C 83% Calm Calm -- 30.12 in1020.0 mb 0.00 in0.0 mm 0.00 in0.0 mm 0.00 in0.0 mm
05:55 AM 16.4°F-8.7°C 12.1°F-11.1°C 83% Calm Calm -- 30.13 in1020.3 mb 0.00 in0.0 mm 0.00 in0.0 mm 0.00 in0.0 mm
06:00 AM 16.2°F-8.8°C 11.9°F-11.2°C 83% Calm Calm -- 30.12 in1020.0 mb 0.00 in0.0 mm 0.00 in0.0 mm 0.00 in0.0 mm
06:05 AM 16.1°F-8.8°C 11.6°F-11.3°C 82% Calm Calm -- 30.12 in1020.0 mb 0.00 in0.0 mm 0.00 in0.0 mm 0.00 in0.0 mm
06:10 AM 16.6°F-8.6°C 12.3°F-10.9°C 83% Calm Calm -- 30.12 in1020.0 mb 0.00 in0.0 mm 0.00 in0.0 mm 0.00 in0.0 mm
06:15 AM 17.2°F-8.2°C 13.2°F-10.4°C 84% Calm Calm -- 30.13 in1020.3 mb 0.00 in0.0 mm 0.00 in0.0 mm 0.00 in0.0 mm
06:20 AM 17.2°F-8.2°C 12.9°F-10.6°C 83% Calm Calm -- 30.13 in1020.3 mb 0.00 in0.0 mm 0.00 in0.0 mm 0.00 in0.0 mm
06:25 AM 17.0°F-8.3°C 12.7°F-10.7°C 83% Calm Calm -- 30.14 in1020.7 mb 0.00 in0.0 mm 0.00 in0.0 mm 0.00 in0.0 mm
06:30 AM 16.8°F-8.4°C 12.5°F-10.8°C 83% Calm Calm -- 30.14 in1020.7 mb 0.00 in0.0 mm 0.00 in0.0 mm 0.00 in0.0 mm
06:35 AM 16.9°F-8.4°C 12.6°F-10.8°C 83% Calm Calm -- 30.14 in1020.7 mb 0.00 in0.0 mm 0.00 in0.0 mm 0.00 in0.0 mm
06:40 AM 16.9°F-8.4°C 12.6°F-10.8°C 83% Calm Calm -- 30.14 in1020.7 mb 0.00 in0.0 mm 0.00 in0.0 mm 0.00 in0.0 mm
06:45 AM 17.4°F-8.1°C 13.1°F-10.5°C 83% Calm Calm -- 30.14 in1020.7 mb 0.00 in0.0 mm 0.00 in0.0 mm 0.00 in0.0 mm
06:50 AM 17.8°F-7.9°C 13.8°F-10.1°C 84% Calm Calm -- 30.15 in1021.0 mb 0.00 in0.0 mm 0.00 in0.0 mm 0.00 in0.0 mm
06:55 AM 17.8°F-7.9°C 13.5°F-10.3°C 83% Calm Calm -- 30.14 in1020.7 mb 0.00 in0.0 mm 0.00 in0.0 mm 0.00 in0.0 mm
07:00 AM 17.7°F-7.9°C 13.4°F-10.3°C 83% Calm Calm -- 30.14 in1020.7 mb 0.00 in0.0 mm 0.00 in0.0 mm 0.00 in0.0 mm
07:05 AM 17.7°F-7.9°C 13.4°F-10.3°C 83% Calm Calm -- 30.15 in1021.0 mb 0.00 in0.0 mm 0.00 in0.0 mm 0.00 in0.0 mm
07:10 AM 18.0°F-7.8°C 14.0°F-10.0°C 84% Calm Calm -- 30.15 in1021.0 mb 0.00 in0.0 mm 0.00 in0.0 mm 0.00 in0.0 mm
07:15 AM 18.0°F-7.8°C 13.7°F-10.2°C 83% Calm Calm -- 30.15 in1021.0 mb 0.00 in0.0 mm 0.00 in0.0 mm 0.00 in0.0 mm
07:20 AM 17.8°F-7.9°C 13.5°F-10.3°C 83% Calm Calm -- 30.15 in1021.0 mb 0.00 in0.0 mm 0.00 in0.0 mm 0.00 in0.0 mm
07:25 AM 17.5°F-8.1°C 13.2°F-10.4°C 83% Calm Calm -- 30.15 in1021.0 mb 0.00 in0.0 mm 0.00 in0.0 mm 0.00 in0.0 mm
07:30 AM 17.3°F-8.2°C 13.0°F-10.6°C 83% Calm Calm -- 30.15 in1021.0 mb 0.00 in0.0 mm 0.00 in0.0 mm 0.00 in0.0 mm
07:35 AM 17.0°F-8.3°C 12.7°F-10.7°C 83% Calm Calm -- 30.15 in1021.0 mb 0.00 in0.0 mm 0.00 in0.0 mm 0.00 in0.0 mm
07:40 AM 16.8°F-8.4°C 12.5°F-10.8°C 83% Calm Calm -- 30.15 in1021.0 mb 0.00 in0.0 mm 0.00 in0.0 mm 0.00 in0.0 mm
07:45 AM 16.6°F-8.6°C 12.3°F-10.9°C 83% Calm Calm -- 30.15 in1021.0 mb 0.00 in0.0 mm 0.00 in0.0 mm 0.00 in0.0 mm
07:50 AM 16.4°F-8.7°C 12.1°F-11.1°C 83% Calm Calm -- 30.16 in1021.3 mb 0.00 in0.0 mm 0.00 in0.0 mm 0.00 in0.0 mm
07:55 AM 16.3°F-8.7°C 11.8°F-11.2°C 82% Calm Calm -- 30.16 in1021.3 mb 0.00 in0.0 mm 0.00 in0.0 mm 0.00 in0.0 mm
08:00 AM 16.1°F-8.8°C 11.6°F-11.3°C 82% Calm Calm -- 30.16 in1021.3 mb 0.00 in0.0 mm 0.00 in0.0 mm 0.00 in0.0 mm
08:05 AM 16.3°F-8.7°C 12.0°F-11.1°C 83% Calm Calm -- 30.17 in1021.7 mb 0.00 in0.0 mm 0.00 in0.0 mm 0.00 in0.0 mm
08:10 AM 17.1°F-8.3°C 13.0°F-10.6°C 84% Calm Calm -- 30.18 in1022.0 mb 0.00 in0.0 mm 0.00 in0.0 mm 0.00 in0.0 mm
08:15 AM 17.4°F-8.1°C 13.4°F-10.3°C 84% Calm Calm -- 30.17 in1021.7 mb 0.00 in0.0 mm 0.00 in0.0 mm 0.00 in0.0 mm
08:20 AM 17.6°F-8.0°C 13.6°F-10.2°C 84% Calm Calm -- 30.18 in1022.0 mb 0.00 in0.0 mm 0.00 in0.0 mm 0.00 in0.0 mm
08:25 AM 17.7°F-7.9°C 13.4°F-10.3°C 83% Calm Calm -- 30.18 in1022.0 mb 0.00 in0.0 mm 0.00 in0.0 mm 0.00 in0.0 mm
08:30 AM 17.9°F-7.8°C 13.6°F-10.2°C 83% Calm Calm -- 30.18 in1022.0 mb 0.00 in0.0 mm 0.00 in0.0 mm 0.00 in0.0 mm
08:35 AM 18.0°F-7.8°C 13.7°F-10.2°C 83% Calm Calm -- 30.19 in1022.4 mb 0.00 in0.0 mm 0.00 in0.0 mm 0.00 in0.0 mm
08:40 AM 18.2°F-7.7°C 13.9°F-10.1°C 83% Calm Calm -- 30.19 in1022.4 mb 0.00 in0.0 mm 0.00 in0.0 mm 0.00 in0.0 mm
08:45 AM 18.5°F-7.5°C 14.2°F-9.9°C 83% Calm Calm -- 30.19 in1022.4 mb 0.00 in0.0 mm 0.00 in0.0 mm 0.00 in0.0 mm
08:50 AM 19.1°F-7.2°C 15.1°F-9.4°C 84% Calm Calm -- 30.20 in1022.7 mb 0.00 in0.0 mm 0.00 in0.0 mm 0.00 in0.0 mm
08:55 AM 19.7°F-6.8°C 15.6°F-9.1°C 84% Calm Calm -- 30.20 in1022.7 mb 0.00 in0.0 mm 0.00 in0.0 mm 0.00 in0.0 mm
09:00 AM 20.1°F-6.6°C 16.0°F-8.9°C 84% Calm Calm -- 30.21 in1023.0 mb 0.00 in0.0 mm 0.00 in0.0 mm 0.00 in0.0 mm
09:05 AM 20.6°F-6.3°C 16.5°F-8.6°C 84% Calm Calm -- 30.22 in1023.4 mb 0.00 in0.0 mm 0.00 in0.0 mm 0.00 in0.0 mm
09:10 AM 21.0°F-6.1°C 16.9°F-8.4°C 84% Calm Calm -- 30.22 in1023.4 mb 0.00 in0.0 mm 0.00 in0.0 mm 0.00 in0.0 mm
09:15 AM 21.6°F-5.8°C 17.5°F-8.1°C 84% Calm Calm -- 30.22 in1023.4 mb 0.00 in0.0 mm 0.00 in0.0 mm 0.00 in0.0 mm
09:20 AM 22.3°F-5.4°C 18.2°F-7.7°C 84% Calm Calm -- 30.22 in1023.4 mb 0.00 in0.0 mm 0.00 in0.0 mm 0.00 in0.0 mm
09:25 AM 22.7°F-5.2°C 18.6°F-7.4°C 84% Calm Calm -- 30.22 in1023.4 mb 0.00 in0.0 mm 0.00 in0.0 mm 0.00 in0.0 mm
09:30 AM 22.9°F-5.1°C 18.5°F-7.5°C 83% Calm Calm -- 30.22 in1023.4 mb 0.00 in0.0 mm 0.00 in0.0 mm 0.00 in0.0 mm
09:35 AM 23.3°F-4.8°C 18.9°F-7.3°C 83% Calm Calm -- 30.22 in1023.4 mb 0.00 in0.0 mm 0.00 in0.0 mm 0.00 in0.0 mm
09:40 AM 23.7°F-4.6°C 19.3°F-7.1°C 83% Calm Calm -- 30.23 in1023.7 mb 0.00 in0.0 mm 0.00 in0.0 mm 0.00 in0.0 mm
09:45 AM 24.0°F-4.4°C 19.6°F-6.9°C 83% Calm Calm -- 30.23 in1023.7 mb 0.00 in0.0 mm 0.00 in0.0 mm 0.00 in0.0 mm
09:50 AM 24.6°F-4.1°C 20.5°F-6.4°C 84% Calm Calm -- 30.23 in1023.7 mb 0.00 in0.0 mm 0.00 in0.0 mm 0.00 in0.0 mm
09:55 AM 25.1°F-3.8°C 20.9°F-6.2°C 84% Calm Calm -- 30.23 in1023.7 mb 0.00 in0.0 mm 0.00 in0.0 mm 0.00 in0.0 mm
10:00 AM 25.5°F-3.6°C 21.1°F-6.1°C 83% Calm Calm -- 30.23 in1023.7 mb 0.00 in0.0 mm 0.00 in0.0 mm 0.00 in0.0 mm
10:05 AM 25.8°F-3.4°C 21.3°F-5.9°C 83% Calm Calm -- 30.23 in1023.7 mb 0.00 in0.0 mm 0.00 in0.0 mm 0.00 in0.0 mm
10:10 AM 26.1°F-3.3°C 21.6°F-5.8°C 83% Calm Calm -- 30.23 in1023.7 mb 0.00 in0.0 mm 0.00 in0.0 mm 0.00 in0.0 mm
10:15 AM 26.2°F-3.2°C 21.7°F-5.7°C 83% Calm Calm -- 30.23 in1023.7 mb 0.00 in0.0 mm 0.00 in0.0 mm 0.00 in0.0 mm
10:20 AM 26.4°F-3.1°C 21.9°F-5.6°C 83% Calm Calm -- 30.23 in1023.7 mb 0.00 in0.0 mm 0.00 in0.0 mm 0.00 in0.0 mm
10:25 AM 27.0°F-2.8°C 22.5°F-5.3°C 83% Calm Calm -- 30.23 in1023.7 mb 0.00 in0.0 mm 0.00 in0.0 mm 0.00 in0.0 mm
10:30 AM 28.0°F-2.2°C 23.8°F-4.6°C 84% Calm Calm -- 30.23 in1023.7 mb 0.00 in0.0 mm 0.00 in0.0 mm 0.00 in0.0 mm
10:35 AM 28.7°F-1.8°C 24.5°F-4.2°C 84% Calm Calm -- 30.23 in1023.7 mb 0.00 in0.0 mm 0.00 in0.0 mm 0.00 in0.0 mm
10:40 AM 29.3°F-1.5°C 24.8°F-4.0°C 83% Calm Calm -- 30.23 in1023.7 mb 0.00 in0.0 mm 0.00 in0.0 mm 0.00 in0.0 mm
10:45 AM 30.0°F-1.1°C 25.2°F-3.8°C 82% Calm Calm -- 30.23 in1023.7 mb 0.00 in0.0 mm 0.00 in0.0 mm 0.00 in0.0 mm
10:50 AM 30.8°F-0.7°C 25.7°F-3.5°C 81% Calm Calm -- 30.22 in1023.4 mb 0.00 in0.0 mm 0.00 in0.0 mm 0.00 in0.0 mm
10:55 AM 31.3°F-0.4°C 25.5°F-3.6°C 79% 1.0 mph NE1.6 kmh NE 3.0 mph4.8 kmh 30.22 in1023.4 mb 0.00 in0.0 mm 0.00 in0.0 mm 0.00 in0.0 mm
11:00 AM 31.7°F-0.2°C 25.3°F-3.7°C 77% 1.0 mph NE1.6 kmh NE 3.0 mph4.8 kmh 30.21 in1023.0 mb 0.00 in0.0 mm 0.00 in0.0 mm 0.00 in0.0 mm
11:05 AM 32.1°F0.1°C 25.1°F-3.8°C 75% 1.0 mph NE1.6 kmh NE 3.0 mph4.8 kmh 30.22 in1023.4 mb 0.00 in0.0 mm 0.00 in0.0 mm 0.00 in0.0 mm
11:10 AM 32.4°F0.2°C 25.0°F-3.9°C 74% 1.0 mph NE1.6 kmh NE 4.0 mph6.4 kmh 30.22 in1023.4 mb 0.00 in0.0 mm 0.00 in0.0 mm 0.00 in0.0 mm
11:15 AM 32.7°F0.4°C 25.0°F-3.9°C 73% 1.0 mph NNE1.6 kmh NNE 4.0 mph6.4 kmh 30.21 in1023.0 mb 0.00 in0.0 mm 0.00 in0.0 mm 0.00 in0.0 mm
11:20 AM 32.7°F0.4°C 24.3°F-4.3°C 71% 2.0 mph NE3.2 kmh NE 5.0 mph8.0 kmh 30.21 in1023.0 mb 0.00 in0.0 mm 0.00 in0.0 mm 0.00 in0.0 mm
11:25 AM 33.2°F0.7°C 24.8°F-4.0°C 71% 2.0 mph NE3.2 kmh NE 5.0 mph8.0 kmh 30.21 in1023.0 mb 0.00 in0.0 mm 0.00 in0.0 mm 0.00 in0.0 mm
11:30 AM 33.7°F0.9°C 25.0°F-3.9°C 70% 1.0 mph NE1.6 kmh NE 4.0 mph6.4 kmh 30.21 in1023.0 mb 0.00 in0.0 mm 0.00 in0.0 mm 0.00 in0.0 mm
11:35 AM 34.2°F1.2°C 25.1°F-3.8°C 69% 1.0 mph NE1.6 kmh NE 4.0 mph6.4 kmh 30.21 in1023.0 mb 0.00 in0.0 mm 0.00 in0.0 mm 0.00 in0.0 mm
11:40 AM 34.5°F1.4°C 24.7°F-4.1°C 67% 1.0 mph NE1.6 kmh NE 4.0 mph6.4 kmh 30.20 in1022.7 mb 0.00 in0.0 mm 0.00 in0.0 mm 0.00 in0.0 mm
11:45 AM 34.8°F1.6°C 25.3°F-3.7°C 68% 2.0 mph NE3.2 kmh NE 4.0 mph6.4 kmh 30.20 in1022.7 mb 0.00 in0.0 mm 0.00 in0.0 mm 0.00 in0.0 mm
11:50 AM 35.3°F1.8°C 25.4°F-3.7°C 67% 2.0 mph NNE3.2 kmh NNE 4.0 mph6.4 kmh 30.20 in1022.7 mb 0.00 in0.0 mm 0.00 in0.0 mm 0.00 in0.0 mm
11:55 AM 35.7°F2.1°C 25.8°F-3.4°C 67% 2.0 mph NNE3.2 kmh NNE 4.0 mph6.4 kmh 30.20 in1022.7 mb 0.00 in0.0 mm 0.00 in0.0 mm 0.00 in0.0 mm
12:00 PM 36.1°F2.3°C 25.8°F-3.4°C 66% 2.0 mph NE3.2 kmh NE 6.0 mph9.7 kmh 30.20 in1022.7 mb 0.00 in0.0 mm 0.00 in0.0 mm 0.00 in0.0 mm
12:05 PM 36.4°F2.4°C 25.7°F-3.5°C 65% 1.0 mph NE1.6 kmh NE 6.0 mph9.7 kmh 30.20 in1022.7 mb 0.00 in0.0 mm 0.00 in0.0 mm 0.00 in0.0 mm
12:10 PM 36.8°F2.7°C 26.1°F-3.3°C 65% 1.0 mph NE1.6 kmh NE 4.0 mph6.4 kmh 30.20 in1022.7 mb 0.00 in0.0 mm 0.00 in0.0 mm 0.00 in0.0 mm
12:15 PM 37.5°F3.1°C 26.4°F-3.1°C 64% 1.0 mph ENE1.6 kmh ENE 4.0 mph6.4 kmh 30.20 in1022.7 mb 0.00 in0.0 mm 0.00 in0.0 mm 0.00 in0.0 mm
12:20 PM 38.2°F3.4°C 26.3°F-3.2°C 62% 1.0 mph E1.6 kmh E 4.0 mph6.4 kmh 30.20 in1022.7 mb 0.00 in0.0 mm 0.00 in0.0 mm 0.00 in0.0 mm
12:25 PM 38.9°F3.8°C 26.6°F-3.0°C 61% 1.0 mph ENE1.6 kmh ENE 4.0 mph6.4 kmh 30.20 in1022.7 mb 0.00 in0.0 mm 0.00 in0.0 mm 0.00 in0.0 mm
12:30 PM 39.3°F4.1°C 26.6°F-3.0°C 60% 1.0 mph NE1.6 kmh NE 3.0 mph4.8 kmh 30.20 in1022.7 mb 0.00 in0.0 mm 0.00 in0.0 mm 0.00 in0.0 mm
12:35 PM 39.5°F4.2°C 26.8°F-2.9°C 60% 1.0 mph NE1.6 kmh NE 3.0 mph4.8 kmh 30.19 in1022.4 mb 0.00 in0.0 mm 0.00 in0.0 mm 0.00 in0.0 mm
12:40 PM 39.9°F4.4°C 26.7°F-2.9°C 59% 1.0 mph ENE1.6 kmh ENE 4.0 mph6.4 kmh 30.19 in1022.4 mb 0.00 in0.0 mm 0.00 in0.0 mm 0.00 in0.0 mm
12:45 PM 40.5°F4.7°C 26.4°F-3.1°C 57% 1.0 mph ENE1.6 kmh ENE 4.0 mph6.4 kmh 30.19 in1022.4 mb 0.00 in0.0 mm 0.00 in0.0 mm 0.00 in0.0 mm
12:50 PM 41.1°F5.1°C 26.1°F-3.3°C 55% 1.0 mph E1.6 kmh E 5.0 mph8.0 kmh 30.18 in1022.0 mb 0.00 in0.0 mm 0.00 in0.0 mm 0.00 in0.0 mm
12:55 PM 41.6°F5.3°C 26.6°F-3.0°C 55% 1.0 mph E1.6 kmh E 5.0 mph8.0 kmh 30.18 in1022.0 mb 0.00 in0.0 mm 0.00 in0.0 mm 0.00 in0.0 mm
01:00 PM 42.4°F5.8°C 26.9°F-2.8°C 54% 1.0 mph ESE1.6 kmh ESE 3.0 mph4.8 kmh 30.18 in1022.0 mb 0.00 in0.0 mm 0.00 in0.0 mm 0.00 in0.0 mm
01:05 PM 42.8°F6.0°C 26.8°F-2.9°C 53% 1.0 mph E1.6 kmh E 3.0 mph4.8 kmh 30.18 in1022.0 mb 0.00 in0.0 mm 0.00 in0.0 mm 0.00 in0.0 mm
01:10 PM 43.1°F6.2°C 27.1°F-2.7°C 53% 1.0 mph ENE1.6 kmh ENE 4.0 mph6.4 kmh 30.18 in1022.0 mb 0.00 in0.0 mm 0.00 in0.0 mm 0.00 in0.0 mm
01:15 PM 43.4°F6.3°C 26.5°F-3.1°C 51% 1.0 mph ENE1.6 kmh ENE 4.0 mph6.4 kmh 30.17 in1021.7 mb 0.00 in0.0 mm 0.00 in0.0 mm 0.00 in0.0 mm
01:20 PM 43.7°F6.5°C 24.8°F-4.0°C 47% 1.0 mph E1.6 kmh E 4.0 mph6.4 kmh 30.17 in1021.7 mb 0.00 in0.0 mm 0.00 in0.0 mm 0.00 in0.0 mm
01:25 PM 43.9°F6.6°C 23.4°F-4.8°C 44% 2.0 mph E3.2 kmh E 5.0 mph8.0 kmh 30.17 in1021.7 mb 0.00 in0.0 mm 0.00 in0.0 mm 0.00 in0.0 mm
01:30 PM 43.8°F6.6°C 22.2°F-5.4°C 42% 2.0 mph E3.2 kmh E 6.0 mph9.7 kmh 30.17 in1021.7 mb 0.00 in0.0 mm 0.00 in0.0 mm 0.00 in0.0 mm
01:35 PM 44.1°F6.7°C 21.9°F-5.6°C 41% 2.0 mph ESE3.2 kmh ESE 6.0 mph9.7 kmh 30.17 in1021.7 mb 0.00 in0.0 mm 0.00 in0.0 mm 0.00 in0.0 mm
01:40 PM 44.1°F6.7°C 20.7°F-6.3°C 39% 3.0 mph SE4.8 kmh SE 7.0 mph11.3 kmh 30.17 in1021.7 mb 0.00 in0.0 mm 0.00 in0.0 mm 0.00 in0.0 mm
01:45 PM 44.1°F6.7°C 21.3°F-5.9°C 40% 2.0 mph ESE3.2 kmh ESE 7.0 mph11.3 kmh 30.16 in1021.3 mb 0.00 in0.0 mm 0.00 in0.0 mm 0.00 in0.0 mm
01:50 PM 44.2°F6.8°C 21.4°F-5.9°C 40% 2.0 mph E3.2 kmh E 5.0 mph8.0 kmh 30.16 in1021.3 mb 0.00 in0.0 mm 0.00 in0.0 mm 0.00 in0.0 mm
01:55 PM 44.2°F6.8°C 20.8°F-6.2°C 39% 2.0 mph E3.2 kmh E 5.0 mph8.0 kmh 30.16 in1021.3 mb 0.00 in0.0 mm 0.00 in0.0 mm 0.00 in0.0 mm
02:00 PM 44.2°F6.8°C 21.4°F-5.9°C 40% 2.0 mph E3.2 kmh E 7.0 mph11.3 kmh 30.16 in1021.3 mb 0.00 in0.0 mm 0.00 in0.0 mm 0.00 in0.0 mm
02:05 PM 44.5°F6.9°C 21.6°F-5.8°C 40% 2.0 mph E3.2 kmh E 7.0 mph11.3 kmh 30.16 in1021.3 mb 0.00 in0.0 mm 0.00 in0.0 mm 0.00 in0.0 mm
02:10 PM 44.7°F7.1°C 22.4°F-5.3°C 41% 2.0 mph E3.2 kmh E 7.0 mph11.3 kmh 30.16 in1021.3 mb 0.00 in0.0 mm 0.00 in0.0 mm 0.00 in0.0 mm
02:15 PM 45.1°F7.3°C 21.6°F-5.8°C 39% 2.0 mph E3.2 kmh E 7.0 mph11.3 kmh 30.16 in1021.3 mb 0.00 in0.0 mm 0.00 in0.0 mm 0.00 in0.0 mm
02:20 PM 45.0°F7.2°C 20.9°F-6.2°C 38% 2.0 mph E3.2 kmh E 6.0 mph9.7 kmh 30.16 in1021.3 mb 0.00 in0.0 mm 0.00 in0.0 mm 0.00 in0.0 mm
02:25 PM 45.0°F7.2°C 20.9°F-6.2°C 38% 2.0 mph E3.2 kmh E 6.0 mph9.7 kmh 30.16 in1021.3 mb 0.00 in0.0 mm 0.00 in0.0 mm 0.00 in0.0 mm
02:30 PM 45.2°F7.3°C 21.7°F-5.7°C 39% 2.0 mph ESE3.2 kmh ESE 6.0 mph9.7 kmh 30.16 in1021.3 mb 0.00 in0.0 mm 0.00 in0.0 mm 0.00 in0.0 mm
02:35 PM 45.3°F7.4°C 21.2°F-6.0°C 38% 2.0 mph E3.2 kmh E 6.0 mph9.7 kmh 30.15 in1021.0 mb 0.00 in0.0 mm 0.00 in0.0 mm 0.00 in0.0 mm
02:40 PM 45.6°F7.6°C 22.0°F-5.6°C 39% 2.0 mph ESE3.2 kmh ESE 6.0 mph9.7 kmh 30.15 in1021.0 mb 0.00 in0.0 mm 0.00 in0.0 mm 0.00 in0.0 mm
02:45 PM 45.8°F7.7°C 21.6°F-5.8°C 38% 2.0 mph ESE3.2 kmh ESE 6.0 mph9.7 kmh 30.15 in1021.0 mb 0.00 in0.0 mm 0.00 in0.0 mm 0.00 in0.0 mm
02:50 PM 45.7°F7.6°C 22.1°F-5.5°C 39% 2.0 mph ESE3.2 kmh ESE 6.0 mph9.7 kmh 30.15 in1021.0 mb 0.00 in0.0 mm 0.00 in0.0 mm 0.00 in0.0 mm
02:55 PM 45.5°F7.5°C 21.3°F-5.9°C 38% 2.0 mph SE3.2 kmh SE 7.0 mph11.3 kmh 30.16 in1021.3 mb 0.00 in0.0 mm 0.00 in0.0 mm 0.00 in0.0 mm
03:00 PM 44.9°F7.2°C 21.4°F-5.9°C 39% 3.0 mph SE4.8 kmh SE 8.0 mph12.9 kmh 30.16 in1021.3 mb 0.00 in0.0 mm 0.00 in0.0 mm 0.00 in0.0 mm
03:05 PM 44.7°F7.1°C 21.8°F-5.7°C 40% 2.0 mph SE3.2 kmh SE 8.0 mph12.9 kmh 30.16 in1021.3 mb 0.00 in0.0 mm 0.00 in0.0 mm 0.00 in0.0 mm
03:10 PM 44.6°F7.0°C 21.1°F-6.1°C 39% 2.0 mph ESE3.2 kmh ESE 6.0 mph9.7 kmh 30.16 in1021.3 mb 0.00 in0.0 mm 0.00 in0.0 mm 0.00 in0.0 mm
03:15 PM 44.1°F6.7°C 21.3°F-5.9°C 40% 3.0 mph ESE4.8 kmh ESE 8.0 mph12.9 kmh 30.15 in1021.0 mb 0.00 in0.0 mm 0.00 in0.0 mm 0.00 in0.0 mm
03:20 PM 44.0°F6.7°C 20.6°F-6.3°C 39% 4.0 mph ESE6.4 kmh ESE 10.0 mph16.1 kmh 30.16 in1021.3 mb 0.00 in0.0 mm 0.00 in0.0 mm 0.00 in0.0 mm
03:25 PM 44.0°F6.7°C 21.2°F-6.0°C 40% 3.0 mph ESE4.8 kmh ESE 10.0 mph16.1 kmh 30.15 in1021.0 mb 0.00 in0.0 mm 0.00 in0.0 mm 0.00 in0.0 mm
03:30 PM 44.1°F6.7°C 21.3°F-5.9°C 40% 2.0 mph E3.2 kmh E 7.0 mph11.3 kmh 30.16 in1021.3 mb 0.00 in0.0 mm 0.00 in0.0 mm 0.00 in0.0 mm
03:35 PM 44.1°F6.7°C 21.3°F-5.9°C 40% 2.0 mph E3.2 kmh E 9.0 mph14.5 kmh 30.15 in1021.0 mb 0.00 in0.0 mm 0.00 in0.0 mm 0.00 in0.0 mm
03:40 PM 43.9°F6.6°C 21.7°F-5.7°C 41% 3.0 mph E4.8 kmh E 9.0 mph14.5 kmh 30.15 in1021.0 mb 0.00 in0.0 mm 0.00 in0.0 mm 0.00 in0.0 mm
03:45 PM 44.0°F6.7°C 22.4°F-5.3°C 42% 2.0 mph ESE3.2 kmh ESE 5.0 mph8.0 kmh 30.16 in1021.3 mb 0.00 in0.0 mm 0.00 in0.0 mm 0.00 in0.0 mm
03:50 PM 44.3°F6.8°C 22.6°F-5.2°C 42% 2.0 mph ESE3.2 kmh ESE 7.0 mph11.3 kmh 30.15 in1021.0 mb 0.00 in0.0 mm 0.00 in0.0 mm 0.00 in0.0 mm
03:55 PM 44.8°F7.1°C 22.5°F-5.3°C 41% 1.0 mph SE1.6 kmh SE 7.0 mph11.3 kmh 30.15 in1021.0 mb 0.00 in0.0 mm 0.00 in0.0 mm 0.00 in0.0 mm
04:00 PM 45.1°F7.3°C 22.8°F-5.1°C 41% 1.0 mph ESE1.6 kmh ESE 4.0 mph6.4 kmh 30.15 in1021.0 mb 0.00 in0.0 mm 0.00 in0.0 mm 0.00 in0.0 mm
04:05 PM 44.8°F7.1°C 21.3°F-5.9°C 39% 2.0 mph ESE3.2 kmh ESE 6.0 mph9.7 kmh 30.16 in1021.3 mb 0.00 in0.0 mm 0.00 in0.0 mm 0.00 in0.0 mm
04:10 PM 44.7°F7.1°C 21.8°F-5.7°C 40% 3.0 mph E4.8 kmh E 7.0 mph11.3 kmh 30.16 in1021.3 mb 0.00 in0.0 mm 0.00 in0.0 mm 0.00 in0.0 mm
04:15 PM 44.5°F6.9°C 21.6°F-5.8°C 40% 2.0 mph E3.2 kmh E 9.0 mph14.5 kmh 30.16 in1021.3 mb 0.00 in0.0 mm 0.00 in0.0 mm 0.00 in0.0 mm
04:20 PM 44.3°F6.8°C 21.5°F-5.8°C 40% 3.0 mph ESE4.8 kmh ESE 9.0 mph14.5 kmh 30.16 in1021.3 mb 0.00 in0.0 mm 0.00 in0.0 mm 0.00 in0.0 mm
04:25 PM 44.4°F6.9°C 21.6°F-5.8°C 40% 4.0 mph ESE6.4 kmh ESE 8.0 mph12.9 kmh 30.16 in1021.3 mb 0.00 in0.0 mm 0.00 in0.0 mm 0.00 in0.0 mm
04:30 PM 44.3°F6.8°C 22.1°F-5.5°C 41% 3.0 mph ESE4.8 kmh ESE 8.0 mph12.9 kmh 30.16 in1021.3 mb 0.00 in0.0 mm 0.00 in0.0 mm 0.00 in0.0 mm
04:35 PM 44.3°F6.8°C 22.1°F-5.5°C 41% 3.0 mph ESE4.8 kmh ESE 8.0 mph12.9 kmh 30.16 in1021.3 mb 0.00 in0.0 mm 0.00 in0.0 mm 0.00 in0.0 mm
04:40 PM 44.2°F6.8°C 21.4°F-5.9°C 40% 3.0 mph ESE4.8 kmh ESE 8.0 mph12.9 kmh 30.16 in1021.3 mb 0.00 in0.0 mm 0.00 in0.0 mm 0.00 in0.0 mm
04:45 PM 44.1°F6.7°C 21.3°F-5.9°C 40% 3.0 mph ESE4.8 kmh ESE 8.0 mph12.9 kmh 30.16 in1021.3 mb 0.00 in0.0 mm 0.00 in0.0 mm 0.00 in0.0 mm
04:50 PM 44.2°F6.8°C 21.4°F-5.9°C 40% 2.0 mph E3.2 kmh E 6.0 mph9.7 kmh 30.17 in1021.7 mb 0.00 in0.0 mm 0.00 in0.0 mm 0.00 in0.0 mm
04:55 PM 44.1°F6.7°C 20.1°F-6.6°C 38% 3.0 mph ESE4.8 kmh ESE 10.0 mph16.1 kmh 30.17 in1021.7 mb 0.00 in0.0 mm 0.00 in0.0 mm 0.00 in0.0 mm
05:00 PM 43.9°F6.6°C 20.5°F-6.4°C 39% 3.0 mph ESE4.8 kmh ESE 10.0 mph16.1 kmh 30.17 in1021.7 mb 0.00 in0.0 mm 0.00 in0.0 mm 0.00 in0.0 mm
05:05 PM 43.6°F6.4°C 20.2°F-6.6°C 39% 3.0 mph ESE4.8 kmh ESE 7.0 mph11.3 kmh 30.17 in1021.7 mb 0.00 in0.0 mm 0.00 in0.0 mm 0.00 in0.0 mm
05:10 PM 43.4°F6.3°C 20.7°F-6.3°C 40% 3.0 mph E4.8 kmh E 7.0 mph11.3 kmh 30.17 in1021.7 mb 0.00 in0.0 mm 0.00 in0.0 mm 0.00 in0.0 mm
05:15 PM 43.5°F6.4°C 21.3°F-5.9°C 41% 2.0 mph E3.2 kmh E 6.0 mph9.7 kmh 30.17 in1021.7 mb 0.00 in0.0 mm 0.00 in0.0 mm 0.00 in0.0 mm
05:20 PM 43.6°F6.4°C 22.0°F-5.6°C 42% 1.0 mph E1.6 kmh E 5.0 mph8.0 kmh 30.17 in1021.7 mb 0.00 in0.0 mm 0.00 in0.0 mm 0.00 in0.0 mm
05:25 PM 43.8°F6.6°C 21.0°F-6.1°C 40% 1.0 mph E1.6 kmh E 4.0 mph6.4 kmh 30.17 in1021.7 mb 0.00 in0.0 mm 0.00 in0.0 mm 0.00 in0.0 mm
05:30 PM 43.7°F6.5°C 21.5°F-5.8°C 41% 2.0 mph E3.2 kmh E 7.0 mph11.3 kmh 30.17 in1021.7 mb 0.00 in0.0 mm 0.00 in0.0 mm 0.00 in0.0 mm
05:35 PM 43.4°F6.3°C 20.7°F-6.3°C 40% 2.0 mph ESE3.2 kmh ESE 7.0 mph11.3 kmh 30.17 in1021.7 mb 0.00 in0.0 mm 0.00 in0.0 mm 0.00 in0.0 mm
05:40 PM 43.1°F6.2°C 21.5°F-5.8°C 42% 2.0 mph E3.2 kmh E 6.0 mph9.7 kmh 30.17 in1021.7 mb 0.00 in0.0 mm 0.00 in0.0 mm 0.00 in0.0 mm
05:45 PM 42.7°F5.9°C 21.7°F-5.7°C 43% 1.0 mph E1.6 kmh E 5.0 mph8.0 kmh 30.18 in1022.0 mb 0.00 in0.0 mm 0.00 in0.0 mm 0.00 in0.0 mm
05:50 PM 42.3°F5.7°C 21.9°F-5.6°C 44% 1.0 mph ESE1.6 kmh ESE 5.0 mph8.0 kmh 30.18 in1022.0 mb 0.00 in0.0 mm 0.00 in0.0 mm 0.00 in0.0 mm
05:55 PM 42.0°F5.6°C 22.7°F-5.2°C 46% 1.0 mph E1.6 kmh E 4.0 mph6.4 kmh 30.18 in1022.0 mb 0.00 in0.0 mm 0.00 in0.0 mm 0.00 in0.0 mm
06:00 PM 41.8°F5.4°C 22.0°F-5.6°C 45% 1.0 mph E1.6 kmh E 10.0 mph16.1 kmh 30.18 in1022.0 mb 0.00 in0.0 mm 0.00 in0.0 mm 0.00 in0.0 mm
06:05 PM 41.8°F5.4°C 22.0°F-5.6°C 45% 1.0 mph E1.6 kmh E 10.0 mph16.1 kmh 30.18 in1022.0 mb 0.00 in0.0 mm 0.00 in0.0 mm 0.00 in0.0 mm
06:10 PM 41.9°F5.5°C 21.5°F-5.8°C 44% 1.0 mph E1.6 kmh E 5.0 mph8.0 kmh 30.17 in1021.7 mb 0.00 in0.0 mm 0.00 in0.0 mm 0.00 in0.0 mm
06:15 PM 41.9°F5.5°C 21.0°F-6.1°C 43% 2.0 mph ESE3.2 kmh ESE 5.0 mph8.0 kmh 30.17 in1021.7 mb 0.00 in0.0 mm 0.00 in0.0 mm 0.00 in0.0 mm
06:20 PM 41.8°F5.4°C 20.9°F-6.2°C 43% 1.0 mph ESE1.6 kmh ESE 5.0 mph8.0 kmh 30.18 in1022.0 mb 0.00 in0.0 mm 0.00 in0.0 mm 0.00 in0.0 mm
06:25 PM 41.6°F5.3°C 20.7°F-6.3°C 43% 1.0 mph ESE1.6 kmh ESE 4.0 mph6.4 kmh 30.18 in1022.0 mb 0.00 in0.0 mm 0.00 in0.0 mm 0.00 in0.0 mm
06:30 PM 41.5°F5.3°C 21.2°F-6.0°C 44% 1.0 mph ESE1.6 kmh ESE 3.0 mph4.8 kmh 30.18 in1022.0 mb 0.00 in0.0 mm 0.00 in0.0 mm 0.00 in0.0 mm
06:35 PM 41.4°F5.2°C 21.6°F-5.8°C 45% 1.0 mph ESE1.6 kmh ESE 3.0 mph4.8 kmh 30.18 in1022.0 mb 0.00 in0.0 mm 0.00 in0.0 mm 0.00 in0.0 mm
06:40 PM 41.3°F5.2°C 21.5°F-5.8°C 45% 1.0 mph E1.6 kmh E 5.0 mph8.0 kmh 30.18 in1022.0 mb 0.00 in0.0 mm 0.00 in0.0 mm 0.00 in0.0 mm
06:45 PM 41.1°F5.1°C 21.9°F-5.6°C 46% 1.0 mph E1.6 kmh E 5.0 mph8.0 kmh 30.17 in1021.7 mb 0.00 in0.0 mm 0.00 in0.0 mm 0.00 in0.0 mm
06:50 PM 40.9°F4.9°C 21.7°F-5.7°C 46% 1.0 mph E1.6 kmh E 3.0 mph4.8 kmh 30.17 in1021.7 mb 0.00 in0.0 mm 0.00 in0.0 mm 0.00 in0.0 mm
06:55 PM 40.7°F4.8°C 22.0°F-5.6°C 47% 2.0 mph E3.2 kmh E 6.0 mph9.7 kmh 30.17 in1021.7 mb 0.00 in0.0 mm 0.00 in0.0 mm 0.00 in0.0 mm
07:00 PM 40.3°F4.6°C 22.1°F-5.5°C 48% 1.0 mph E1.6 kmh E 6.0 mph9.7 kmh 30.17 in1021.7 mb 0.00 in0.0 mm 0.00 in0.0 mm 0.00 in0.0 mm
07:05 PM 40.0°F4.4°C 21.9°F-5.6°C 48% 1.0 mph E1.6 kmh E 4.0 mph6.4 kmh 30.17 in1021.7 mb 0.00 in0.0 mm 0.00 in0.0 mm 0.00 in0.0 mm
07:10 PM 39.8°F4.3°C 22.2°F-5.4°C 49% 1.0 mph E1.6 kmh E 5.0 mph8.0 kmh 30.17 in1021.7 mb 0.00 in0.0 mm 0.00 in0.0 mm 0.00 in0.0 mm
07:15 PM 39.5°F4.2°C 22.4°F-5.3°C 50% 1.0 mph E1.6 kmh E 5.0 mph8.0 kmh 30.17 in1021.7 mb 0.00 in0.0 mm 0.00 in0.0 mm 0.00 in0.0 mm
07:20 PM 39.3°F4.1°C 22.7°F-5.2°C 51% 1.0 mph E1.6 kmh E 4.0 mph6.4 kmh 30.17 in1021.7 mb 0.00 in0.0 mm 0.00 in0.0 mm 0.00 in0.0 mm
07:25 PM 39.1°F3.9°C 22.5°F-5.3°C 51% 1.0 mph E1.6 kmh E 5.0 mph8.0 kmh 30.17 in1021.7 mb 0.00 in0.0 mm 0.00 in0.0 mm 0.00 in0.0 mm
07:30 PM 38.9°F3.8°C 22.3°F-5.4°C 51% 1.0 mph E1.6 kmh E 5.0 mph8.0 kmh 30.17 in1021.7 mb 0.00 in0.0 mm 0.00 in0.0 mm 0.00 in0.0 mm
07:35 PM 38.7°F3.7°C 22.1°F-5.5°C 51% 1.0 mph E1.6 kmh E 3.0 mph4.8 kmh 30.17 in1021.7 mb 0.00 in0.0 mm 0.00 in0.0 mm 0.00 in0.0 mm
07:40 PM 38.5°F3.6°C 22.4°F-5.3°C 52% 1.0 mph ESE1.6 kmh ESE 3.0 mph4.8 kmh 30.17 in1021.7 mb 0.00 in0.0 mm 0.00 in0.0 mm 0.00 in0.0 mm
07:45 PM 38.4°F3.6°C 22.3°F-5.4°C 52% Calm Calm 4.0 mph6.4 kmh 30.18 in1022.0 mb 0.00 in0.0 mm 0.00 in0.0 mm 0.00 in0.0 mm
07:50 PM 38.1°F3.4°C 22.5°F-5.3°C 53% Calm Calm 4.0 mph6.4 kmh 30.18 in1022.0 mb 0.00 in0.0 mm 0.00 in0.0 mm 0.00 in0.0 mm
07:55 PM 37.8°F3.2°C 22.6°F-5.2°C 54% Calm Calm 1.0 mph1.6 kmh 30.18 in1022.0 mb 0.00 in0.0 mm 0.00 in0.0 mm 0.00 in0.0 mm
08:00 PM 37.4°F3.0°C 22.8°F-5.1°C 55% Calm Calm 1.0 mph1.6 kmh 30.18 in1022.0 mb 0.00 in0.0 mm 0.00 in0.0 mm 0.00 in0.0 mm
08:05 PM 37.1°F2.8°C 22.4°F-5.3°C 55% Calm Calm 1.0 mph1.6 kmh 30.19 in1022.4 mb 0.00 in0.0 mm 0.00 in0.0 mm 0.00 in0.0 mm
08:10 PM 37.0°F2.8°C 23.2°F-4.9°C 57% Calm Calm -- 30.18 in1022.0 mb 0.00 in0.0 mm 0.00 in0.0 mm 0.00 in0.0 mm
08:15 PM 36.8°F2.7°C 23.0°F-5.0°C 57% Calm Calm 1.0 mph1.6 kmh 30.18 in1022.0 mb 0.00 in0.0 mm 0.00 in0.0 mm 0.00 in0.0 mm
08:20 PM 36.6°F2.6°C 23.2°F-4.9°C 58% Calm Calm 1.0 mph1.6 kmh 30.18 in1022.0 mb 0.00 in0.0 mm 0.00 in0.0 mm 0.00 in0.0 mm
08:25 PM 36.3°F2.4°C 23.3°F-4.8°C 59% Calm Calm -- 30.18 in1022.0 mb 0.00 in0.0 mm 0.00 in0.0 mm 0.00 in0.0 mm
08:30 PM 36.1°F2.3°C 23.1°F-4.9°C 59% Calm Calm -- 30.18 in1022.0 mb 0.00 in0.0 mm 0.00 in0.0 mm 0.00 in0.0 mm
08:35 PM 36.0°F2.2°C 23.0°F-5.0°C 59% Calm Calm -- 30.18 in1022.0 mb 0.00 in0.0 mm 0.00 in0.0 mm 0.00 in0.0 mm
08:40 PM 36.0°F2.2°C 23.0°F-5.0°C 59% Calm Calm 1.0 mph1.6 kmh 30.18 in1022.0 mb 0.00 in0.0 mm 0.00 in0.0 mm 0.00 in0.0 mm
08:45 PM 35.9°F2.2°C 23.4°F-4.8°C 60% Calm Calm 1.0 mph1.6 kmh 30.18 in1022.0 mb 0.00 in0.0 mm 0.00 in0.0 mm 0.00 in0.0 mm
08:50 PM 35.6°F2.0°C 23.5°F-4.7°C 61% Calm Calm 1.0 mph1.6 kmh 30.18 in1022.0 mb 0.00 in0.0 mm 0.00 in0.0 mm 0.00 in0.0 mm
08:55 PM 35.4°F1.9°C 23.3°F-4.8°C 61% Calm Calm -- 30.18 in1022.0 mb 0.00 in0.0 mm 0.00 in0.0 mm 0.00 in0.0 mm
09:00 PM 35.3°F1.8°C 23.2°F-4.9°C 61% Calm Calm 1.0 mph1.6 kmh 30.18 in1022.0 mb 0.00 in0.0 mm 0.00 in0.0 mm 0.00 in0.0 mm
09:05 PM 35.3°F1.8°C 22.8°F-5.1°C 60% Calm Calm 1.0 mph1.6 kmh 30.19 in1022.4 mb 0.00 in0.0 mm 0.00 in0.0 mm 0.00 in0.0 mm
09:10 PM 35.0°F1.7°C 22.5°F-5.3°C 60% Calm Calm -- 30.19 in1022.4 mb 0.00 in0.0 mm 0.00 in0.0 mm 0.00 in0.0 mm
09:15 PM 34.8°F1.6°C 22.7°F-5.2°C 61% Calm Calm -- 30.19 in1022.4 mb 0.00 in0.0 mm 0.00 in0.0 mm 0.00 in0.0 mm
09:20 PM 34.8°F1.6°C 23.1°F-4.9°C 62% Calm Calm -- 30.19 in1022.4 mb 0.00 in0.0 mm 0.00 in0.0 mm 0.00 in0.0 mm
09:25 PM 34.9°F1.6°C 23.2°F-4.9°C 62% Calm Calm 2.0 mph3.2 kmh 30.19 in1022.4 mb 0.00 in0.0 mm 0.00 in0.0 mm 0.00 in0.0 mm
09:30 PM 34.9°F1.6°C 23.2°F-4.9°C 62% Calm Calm 2.0 mph3.2 kmh 30.19 in1022.4 mb 0.00 in0.0 mm 0.00 in0.0 mm 0.00 in0.0 mm
09:35 PM 34.9°F1.6°C 23.2°F-4.9°C 62% Calm Calm 2.0 mph3.2 kmh 30.19 in1022.4 mb 0.00 in0.0 mm 0.00 in0.0 mm 0.00 in0.0 mm
09:40 PM 34.9°F1.6°C 23.2°F-4.9°C 62% Calm Calm 1.0 mph1.6 kmh 30.18 in1022.0 mb 0.00 in0.0 mm 0.00 in0.0 mm 0.00 in0.0 mm
09:45 PM 35.1°F1.7°C 23.0°F-5.0°C 61% Calm Calm 4.0 mph6.4 kmh 30.19 in1022.4 mb 0.00 in0.0 mm 0.00 in0.0 mm 0.00 in0.0 mm
09:50 PM 35.1°F1.7°C 23.4°F-4.8°C 62% Calm Calm 4.0 mph6.4 kmh 30.19 in1022.4 mb 0.00 in0.0 mm 0.00 in0.0 mm 0.00 in0.0 mm
09:55 PM 35.2°F1.8°C 23.5°F-4.7°C 62% Calm Calm 4.0 mph6.4 kmh 30.19 in1022.4 mb 0.00 in0.0 mm 0.00 in0.0 mm 0.00 in0.0 mm
10:00 PM 35.2°F1.8°C 23.5°F-4.7°C 62% 1.0 mph ENE1.6 kmh ENE 4.0 mph6.4 kmh 30.19 in1022.4 mb 0.00 in0.0 mm 0.00 in0.0 mm 0.00 in0.0 mm
10:05 PM 35.2°F1.8°C 23.1°F-4.9°C 61% 1.0 mph NE1.6 kmh NE 3.0 mph4.8 kmh 30.20 in1022.7 mb 0.00 in0.0 mm 0.00 in0.0 mm 0.00 in0.0 mm
10:10 PM 35.2°F1.8°C 23.5°F-4.7°C 62% 1.0 mph NE1.6 kmh NE 3.0 mph4.8 kmh 30.20 in1022.7 mb 0.00 in0.0 mm 0.00 in0.0 mm 0.00 in0.0 mm
10:15 PM 35.2°F1.8°C 23.5°F-4.7°C 62% Calm Calm 4.0 mph6.4 kmh 30.20 in1022.7 mb 0.00 in0.0 mm 0.00 in0.0 mm 0.00 in0.0 mm
10:20 PM 35.1°F1.7°C 23.4°F-4.8°C 62% 1.0 mph ENE1.6 kmh ENE 4.0 mph6.4 kmh 30.21 in1023.0 mb 0.00 in0.0 mm 0.00 in0.0 mm 0.00 in0.0 mm
10:25 PM 35.1°F1.7°C 23.8°F-4.6°C 63% Calm Calm 3.0 mph4.8 kmh 30.21 in1023.0 mb 0.00 in0.0 mm 0.00 in0.0 mm 0.00 in0.0 mm
10:30 PM 35.0°F1.7°C 23.7°F-4.6°C 63% Calm Calm 2.0 mph3.2 kmh 30.21 in1023.0 mb 0.00 in0.0 mm 0.00 in0.0 mm 0.00 in0.0 mm
10:35 PM 35.0°F1.7°C 24.0°F-4.4°C 64% Calm Calm 3.0 mph4.8 kmh 30.21 in1023.0 mb 0.00 in0.0 mm 0.00 in0.0 mm 0.00 in0.0 mm
10:40 PM 35.0°F1.7°C 24.0°F-4.4°C 64% Calm Calm 3.0 mph4.8 kmh 30.21 in1023.0 mb 0.00 in0.0 mm 0.00 in0.0 mm 0.00 in0.0 mm
10:45 PM 35.0°F1.7°C 24.0°F-4.4°C 64% Calm Calm 3.0 mph4.8 kmh 30.21 in1023.0 mb 0.00 in0.0 mm 0.00 in0.0 mm 0.00 in0.0 mm
10:50 PM 35.0°F1.7°C 24.0°F-4.4°C 64% Calm Calm 4.0 mph6.4 kmh 30.21 in1023.0 mb 0.00 in0.0 mm 0.00 in0.0 mm 0.00 in0.0 mm
10:55 PM 34.9°F1.6°C 24.3°F-4.3°C 65% Calm Calm 4.0 mph6.4 kmh 30.21 in1023.0 mb 0.00 in0.0 mm 0.00 in0.0 mm 0.00 in0.0 mm
11:00 PM 34.9°F1.6°C 23.9°F-4.5°C 64% Calm Calm 4.0 mph6.4 kmh 30.21 in1023.0 mb 0.00 in0.0 mm 0.00 in0.0 mm 0.00 in0.0 mm
11:05 PM 34.9°F1.6°C 24.3°F-4.3°C 65% Calm Calm 4.0 mph6.4 kmh 30.21 in1023.0 mb 0.00 in0.0 mm 0.00 in0.0 mm 0.00 in0.0 mm
11:10 PM 34.8°F1.6°C 24.2°F-4.3°C 65% Calm Calm 2.0 mph3.2 kmh 30.21 in1023.0 mb 0.00 in0.0 mm 0.00 in0.0 mm 0.00 in0.0 mm
11:15 PM 34.8°F1.6°C 24.2°F-4.3°C 65% Calm Calm 3.0 mph4.8 kmh 30.21 in1023.0 mb 0.00 in0.0 mm 0.00 in0.0 mm 0.00 in0.0 mm
11:20 PM 34.8°F1.6°C 24.6°F-4.1°C 66% Calm Calm 3.0 mph4.8 kmh 30.21 in1023.0 mb 0.00 in0.0 mm 0.00 in0.0 mm 0.00 in0.0 mm
11:25 PM 34.8°F1.6°C 24.6°F-4.1°C 66% Calm Calm 4.0 mph6.4 kmh 30.21 in1023.0 mb 0.00 in0.0 mm 0.00 in0.0 mm 0.00 in0.0 mm
11:30 PM 34.7°F1.5°C 24.5°F-4.2°C 66% Calm Calm 4.0 mph6.4 kmh 30.21 in1023.0 mb 0.00 in0.0 mm 0.00 in0.0 mm 0.00 in0.0 mm
11:35 PM 34.7°F1.5°C 24.9°F-3.9°C 67% Calm Calm 3.0 mph4.8 kmh 30.22 in1023.4 mb 0.00 in0.0 mm 0.00 in0.0 mm 0.00 in0.0 mm
11:40 PM 34.6°F1.4°C 24.8°F-4.0°C 67% Calm Calm 2.0 mph3.2 kmh 30.22 in1023.4 mb 0.00 in0.0 mm 0.00 in0.0 mm 0.00 in0.0 mm
11:45 PM 34.5°F1.4°C 24.7°F-4.1°C 67% Calm Calm 3.0 mph4.8 kmh 30.22 in1023.4 mb 0.00 in0.0 mm 0.00 in0.0 mm 0.00 in0.0 mm
11:50 PM 34.5°F1.4°C 24.7°F-4.1°C 67% Calm Calm 3.0 mph4.8 kmh 30.22 in1023.4 mb 0.00 in0.0 mm 0.00 in0.0 mm 0.00 in0.0 mm
11:55 PM 34.4°F1.3°C 24.6°F-4.1°C 67% Calm Calm 3.0 mph4.8 kmh 30.22 in1023.4 mb 0.00 in0.0 mm 0.00 in0.0 mm 0.00 in0.0 mm